Terminal Aerodrome Forecast
Issued by NWS

Home | Current Version | Previous Version | Text Only | Print | Product List | Glossary On
Versions: 1 2 3 4 5 6 7 8 9 10 11 12 13 14 15 16 17 18 19 20
000
FTUS46 KEKA 230549 CCA
TAFCEC
TAF COR
KCEC 230549Z 2306/2406 16005KT P6SM OVC200
     FM230800 16007KT P6SM SCT015 OVC025
     FM231100 16010KT 4SM -DZ BR BKN007 OVC012
     FM231800 16012KT P6SM BKN020
     FM240000 16015KT P6SM -RA OVC015=

USA.gov is the U.S. government's official web portal to all federal, state and local government web resources and services.